Time;durP1;ratioP1;P1;durP2;ratioP2;P2;SDS_P1;SDS_P2;PMS_P1;PMS_P2;Temp;Humidity;BMP_temperature;BMP_pressure;BME280_temperature;BME280_humidity;BME280_pressure;Samples;Min_cycle;Max_cycle;Signal;HPM_P1;HPM_P2
2022/07/11 00:01:18;;;;;;;0.40;0.40;;;12.00;99.90;;;;;;5052000;28;20221;-67
2022/07/11 00:03:43;;;;;;;0.50;0.50;;;12.00;99.90;;;;;;5051118;28;20209;-67
2022/07/11 00:06:09;;;;;;;0.50;0.50;;;11.90;99.90;;;;;;5030392;28;20230;-68
2022/07/11 00:08:35;;;;;;;0.50;0.50;;;11.80;99.90;;;;;;5031672;28;20195;-67
2022/07/11 00:11:00;;;;;;;0.50;0.50;;;11.80;99.90;;;;;;5032095;28;20194;-67
2022/07/11 00:13:26;;;;;;;0.50;0.50;;;11.70;99.90;;;;;;5031454;28;20240;-67
2022/07/11 00:15:52;;;;;;;0.88;0.80;;;11.60;99.90;;;;;;5014132;28;20234;-67
2022/07/11 00:18:18;;;;;;;0.43;0.43;;;11.60;99.90;;;;;;5031894;28;20198;-67
2022/07/11 00:20:44;;;;;;;0.50;0.50;;;11.50;99.90;;;;;;5026228;28;20694;-67
2022/07/11 00:23:09;;;;;;;0.50;0.50;;;11.50;99.90;;;;;;5071553;28;20218;-67
2022/07/11 00:25:35;;;;;;;0.52;0.52;;;11.40;99.90;;;;;;5071256;28;20681;-67
2022/07/11 00:28:01;;;;;;;0.50;0.50;;;11.40;99.90;;;;;;5071778;28;20185;-66
2022/07/11 00:30:26;;;;;;;0.50;0.50;;;11.40;99.90;;;;;;5072677;28;20276;-67
2022/07/11 00:32:52;;;;;;;0.50;0.50;;;11.40;99.90;;;;;;5086693;28;20215;-68
2022/07/11 00:35:18;;;;;;;0.60;0.60;;;11.40;99.90;;;;;;5094837;28;20651;-67
2022/07/11 00:37:43;;;;;;;0.55;0.55;;;11.30;99.90;;;;;;5093953;28;20200;-67
2022/07/11 00:40:09;;;;;;;0.60;0.60;;;11.30;99.90;;;;;;5095466;28;20188;-67
2022/07/11 00:42:36;;;;;;;0.60;0.60;;;11.30;99.90;;;;;;5094890;28;20201;-66
2022/07/11 00:45:02;;;;;;;0.60;0.60;;;11.20;99.90;;;;;;5095131;28;20189;-66
2022/07/11 00:47:28;;;;;;;0.50;0.50;;;11.30;99.90;;;;;;5094000;28;20236;-67
2022/07/11 00:49:55;;;;;;;0.60;0.60;;;11.40;99.90;;;;;;5057487;28;20217;-66
2022/07/11 00:52:20;;;;;;;0.60;0.60;;;11.40;99.90;;;;;;5053261;28;20745;-66
2022/07/11 00:54:47;;;;;;;0.70;0.70;;;11.30;99.90;;;;;;5057661;28;20224;-66
2022/07/11 00:57:13;;;;;;;0.60;0.60;;;11.30;99.90;;;;;;5075452;28;20196;-66
2022/07/11 00:59:39;;;;;;;0.50;0.50;;;11.30;99.90;;;;;;5074574;28;21475;-66
2022/07/11 01:02:05;;;;;;;0.60;0.60;;;11.20;99.90;;;;;;5074653;28;20212;-66
2022/07/11 01:04:31;;;;;;;0.52;0.52;;;11.10;99.90;;;;;;5074500;28;20648;-66
2022/07/11 01:06:56;;;;;;;0.43;0.43;;;11.00;99.90;;;;;;5074343;28;20207;-66
2022/07/11 01:09:22;;;;;;;0.60;0.60;;;11.00;99.90;;;;;;5074338;28;20786;-66
2022/07/11 01:11:48;;;;;;;0.70;0.70;;;11.00;99.90;;;;;;5074579;28;20547;-67
2022/07/11 01:14:13;;;;;;;0.50;0.50;;;10.90;99.90;;;;;;5074556;28;20668;-66
2022/07/11 01:16:39;;;;;;;0.57;0.57;;;10.90;99.90;;;;;;5073132;28;20231;-66
2022/07/11 01:19:05;;;;;;;0.50;0.50;;;10.80;99.90;;;;;;5052961;28;20204;-66
2022/07/11 01:21:35;;;;;;;0.50;0.50;;;10.70;99.90;;;;;;5041779;28;20716;-66
2022/07/11 01:24:02;;;;;;;0.60;0.60;;;10.60;99.90;;;;;;5034212;28;20234;-67
2022/07/11 01:26:29;;;;;;;0.60;0.60;;;10.50;99.90;;;;;;5034469;28;20236;-66
2022/07/11 01:29:03;;;;;;;0.73;0.73;;;10.50;99.90;;;;;;5016296;28;20202;-67
2022/07/11 01:31:29;;;;;;;0.60;0.60;;;10.60;99.90;;;;;;5016139;28;20193;-66
2022/07/11 01:33:55;;;;;;;0.60;0.60;;;10.70;99.90;;;;;;5034266;28;20187;-66
2022/07/11 01:36:20;;;;;;;0.60;0.60;;;10.90;99.90;;;;;;5033914;28;20221;-67
2022/07/11 01:38:46;;;;;;;0.50;0.50;;;11.10;99.90;;;;;;5034230;28;20190;-66
2022/07/11 01:41:12;;;;;;;0.60;0.60;;;11.40;99.90;;;;;;5033239;28;20197;-67
2022/07/11 01:43:37;;;;;;;0.55;0.55;;;11.50;99.90;;;;;;5033318;28;20213;-66
2022/07/11 01:46:03;;;;;;;0.50;0.50;;;11.60;99.90;;;;;;5033830;28;20653;-67
2022/07/11 01:48:29;;;;;;;0.60;0.60;;;11.60;99.90;;;;;;5033571;28;20194;-66
2022/07/11 01:50:54;;;;;;;0.52;0.52;;;11.50;99.90;;;;;;5035957;28;20586;-67
2022/07/11 01:53:20;;;;;;;0.50;0.50;;;11.40;99.90;;;;;;5035117;28;20212;-67
2022/07/11 01:55:46;;;;;;;0.57;0.57;;;11.40;99.90;;;;;;5053522;28;20232;-66
2022/07/11 01:58:12;;;;;;;0.50;0.50;;;11.30;99.90;;;;;;5053907;28;20190;-66
2022/07/11 02:00:38;;;;;;;0.70;0.70;;;11.30;99.90;;;;;;5047433;28;20672;-67
2022/07/11 02:03:03;;;;;;;0.52;0.52;;;11.30;99.90;;;;;;5015535;28;20578;-66
2022/07/11 02:05:29;;;;;;;0.60;0.60;;;11.30;99.90;;;;;;5018441;28;20200;-66
2022/07/11 02:08:13;;;;;;;11.80;1.38;;;11.20;99.90;;;;;;5053528;28;20194;-66
2022/07/11 02:10:46;;;;;;;0.50;0.50;;;11.40;99.90;;;;;;5053515;28;20251;-68
2022/07/11 02:13:15;;;;;;;0.50;0.50;;;11.40;99.90;;;;;;5052964;28;20193;-67
2022/07/11 02:15:42;;;;;;;0.60;0.60;;;11.40;99.90;;;;;;5034925;28;20198;-67
2022/07/11 02:18:08;;;;;;;0.50;0.50;;;11.50;99.90;;;;;;5053223;28;20190;-67
2022/07/11 02:20:35;;;;;;;0.70;0.70;;;11.50;99.90;;;;;;5052769;28;20232;-67
2022/07/11 02:23:01;;;;;;;0.65;0.65;;;11.60;99.90;;;;;;5052835;28;20668;-67
2022/07/11 02:25:27;;;;;;;0.52;0.52;;;11.60;99.90;;;;;;5040658;28;20215;-67
2022/07/11 02:27:53;;;;;;;0.55;0.55;;;11.70;99.90;;;;;;5032913;28;20190;-67
2022/07/11 02:30:19;;;;;;;0.50;0.50;;;11.70;99.90;;;;;;5032982;28;20197;-68
2022/07/11 02:32:45;;;;;;;0.50;0.50;;;11.90;99.90;;;;;;5032328;28;20224;-66
2022/07/11 02:35:10;;;;;;;0.50;0.50;;;11.90;99.90;;;;;;5032687;28;20190;-67
2022/07/11 02:37:36;;;;;;;0.60;0.60;;;11.90;99.90;;;;;;5032644;28;20198;-66
2022/07/11 02:40:02;;;;;;;0.60;0.60;;;11.90;99.90;;;;;;5032663;28;20198;-67
2022/07/11 02:42:28;;;;;;;1.63;1.23;;;11.80;99.90;;;;;;5031724;28;20696;-66
2022/07/11 02:44:53;;;;;;;0.55;0.55;;;11.80;99.90;;;;;;5032289;28;20186;-66
2022/07/11 02:47:19;;;;;;;0.60;0.60;;;11.80;99.90;;;;;;5017475;28;20220;-67
2022/07/11 02:49:47;;;;;;;0.70;0.70;;;11.90;99.90;;;;;;5034493;28;20206;-67
2022/07/11 02:52:13;;;;;;;0.50;0.50;;;11.90;99.90;;;;;;5034342;28;20221;-67
2022/07/11 02:54:39;;;;;;;0.50;0.50;;;12.00;99.90;;;;;;5052193;28;20568;-66
2022/07/11 02:57:05;;;;;;;0.68;0.68;;;12.10;99.90;;;;;;5052259;28;20193;-67
2022/07/11 02:59:31;;;;;;;0.50;0.50;;;12.20;99.90;;;;;;5052266;28;20193;-67
2022/07/11 03:01:56;;;;;;;0.50;0.50;;;12.20;99.90;;;;;;5044917;28;20396;-66
2022/07/11 03:04:22;;;;;;;0.77;0.77;;;12.20;99.90;;;;;;5032392;28;20292;-67
2022/07/11 03:06:48;;;;;;;1.45;1.33;;;12.30;99.90;;;;;;5028275;28;20201;-67
2022/07/11 03:09:13;;;;;;;0.60;0.60;;;12.40;99.90;;;;;;5052121;28;20185;-67
2022/07/11 03:11:39;;;;;;;0.50;0.50;;;12.50;99.90;;;;;;5034505;28;20558;-67
2022/07/11 03:14:05;;;;;;;0.70;0.70;;;12.60;99.90;;;;;;5052260;28;20207;-66
2022/07/11 03:16:31;;;;;;;0.50;0.50;;;12.70;99.90;;;;;;5052307;28;20193;-67
2022/07/11 03:18:57;;;;;;;0.50;0.50;;;12.80;99.90;;;;;;5034206;28;20200;-69
2022/07/11 03:21:24;;;;;;;0.50;0.50;;;12.80;99.90;;;;;;5042148;28;20296;-67
2022/07/11 03:23:49;;;;;;;0.57;0.57;;;12.80;99.90;;;;;;5032323;28;20214;-67
2022/07/11 03:26:16;;;;;;;0.50;0.50;;;12.80;99.90;;;;;;5014512;28;20194;-68
2022/07/11 03:28:42;;;;;;;0.50;0.50;;;12.80;99.90;;;;;;5032206;28;20301;-67
2022/07/11 03:31:07;;;;;;;0.40;0.40;;;12.90;99.90;;;;;;5032984;28;20673;-67
2022/07/11 03:33:33;;;;;;;0.50;0.50;;;12.90;99.90;;;;;;5032352;28;20240;-67
2022/07/11 03:35:59;;;;;;;0.50;0.50;;;13.00;99.90;;;;;;5032051;28;20273;-67
2022/07/11 03:38:24;;;;;;;0.60;0.60;;;13.10;99.90;;;;;;5031816;28;20222;-67
2022/07/11 03:40:50;;;;;;;0.50;0.50;;;13.10;99.90;;;;;;5032178;28;20201;-67
2022/07/11 03:43:16;;;;;;;0.50;0.50;;;13.20;99.90;;;;;;5032205;28;20213;-66
2022/07/11 03:45:42;;;;;;;0.60;0.60;;;13.20;99.90;;;;;;5051932;28;20644;-66
2022/07/11 03:48:08;;;;;;;0.47;0.47;;;13.30;99.90;;;;;;5052068;28;20292;-67
2022/07/11 03:50:35;;;;;;;0.52;0.52;;;13.30;99.90;;;;;;5052041;28;20197;-67
2022/07/11 03:53:02;;;;;;;0.55;0.55;;;13.30;99.90;;;;;;5051829;28;20212;-67
2022/07/11 03:55:28;;;;;;;0.50;0.50;;;13.40;99.90;;;;;;5052267;28;20636;-67
2022/07/11 03:57:54;;;;;;;0.68;0.68;;;13.40;99.90;;;;;;5052057;28;20189;-67
2022/07/11 04:00:20;;;;;;;0.50;0.50;;;13.40;99.90;;;;;;5051091;28;20202;-67
2022/07/11 04:02:47;;;;;;;0.50;0.50;;;13.40;99.90;;;;;;5033785;28;20248;-67
2022/07/11 04:05:13;;;;;;;0.40;0.40;;;13.40;99.90;;;;;;5053791;28;20201;-66
2022/07/11 04:07:39;;;;;;;0.40;0.40;;;13.40;99.90;;;;;;5036597;28;20194;-67
2022/07/11 04:10:05;;;;;;;0.50;0.50;;;13.50;99.90;;;;;;5017857;28;20201;-67
2022/07/11 04:12:31;;;;;;;1.85;1.40;;;13.50;99.90;;;;;;5017876;28;20569;-66
2022/07/11 04:14:57;;;;;;;0.47;0.47;;;13.60;99.90;;;;;;5035802;28;20205;-67
2022/07/11 04:17:22;;;;;;;0.60;0.60;;;13.70;99.90;;;;;;5035371;28;20206;-67
2022/07/11 04:19:48;;;;;;;0.40;0.40;;;13.70;99.90;;;;;;5035406;28;20194;-66
2022/07/11 04:22:14;;;;;;;0.40;0.40;;;13.70;99.90;;;;;;5035654;28;20653;-67
2022/07/11 04:24:39;;;;;;;0.50;0.50;;;13.80;99.90;;;;;;5039671;28;20197;-66
2022/07/11 04:27:05;;;;;;;1.33;0.90;;;13.90;99.90;;;;;;5037316;28;20190;-67
2022/07/11 04:29:31;;;;;;;0.55;0.55;;;14.00;99.90;;;;;;5055399;28;20205;-66
2022/07/11 04:31:57;;;;;;;0.50;0.50;;;14.10;99.90;;;;;;5055134;28;20193;-67
2022/07/11 04:34:22;;;;;;;0.50;0.50;;;14.20;99.90;;;;;;5023218;28;20206;-68
2022/07/11 04:36:48;;;;;;;0.50;0.50;;;14.20;99.90;;;;;;5017194;28;20205;-67
2022/07/11 04:39:14;;;;;;;0.50;0.50;;;14.30;99.90;;;;;;5034856;28;20209;-67
2022/07/11 04:41:40;;;;;;;0.47;0.47;;;14.40;99.90;;;;;;5053501;28;20664;-66
2022/07/11 04:44:05;;;;;;;0.50;0.50;;;14.50;99.90;;;;;;5055026;28;20212;-67
2022/07/11 04:46:32;;;;;;;0.50;0.50;;;14.50;99.90;;;;;;5036739;28;20205;-67
2022/07/11 04:48:58;;;;;;;0.50;0.50;;;14.70;99.90;;;;;;5037277;28;20205;-68
2022/07/11 04:51:24;;;;;;;0.40;0.40;;;14.70;99.90;;;;;;5055518;28;20327;-68
2022/07/11 04:53:50;;;;;;;0.40;0.40;;;14.80;99.90;;;;;;5055293;28;20687;-67
2022/07/11 04:56:16;;;;;;;0.50;0.50;;;14.80;99.90;;;;;;5054821;28;20201;-67
2022/07/11 04:58:42;;;;;;;0.30;0.30;;;14.90;99.90;;;;;;5054673;28;20197;-67
2022/07/11 05:01:08;;;;;;;0.40;0.40;;;14.90;99.90;;;;;;5036875;28;20205;-67
2022/07/11 05:03:34;;;;;;;0.50;0.50;;;14.90;99.90;;;;;;5019923;28;20202;-67
2022/07/11 05:06:00;;;;;;;0.65;0.65;;;15.00;99.90;;;;;;5041686;28;20190;-67
2022/07/11 05:08:26;;;;;;;0.40;0.40;;;15.00;99.90;;;;;;5054967;28;20200;-67
2022/07/11 05:10:52;;;;;;;0.40;0.40;;;15.10;99.90;;;;;;5055042;28;20169;-68
2022/07/11 05:13:18;;;;;;;0.32;0.32;;;15.20;99.90;;;;;;5054606;28;20556;-68
2022/07/11 05:15:44;;;;;;;0.40;0.40;;;15.30;99.90;;;;;;5053089;28;20190;-67
2022/07/11 05:18:10;;;;;;;0.40;0.40;;;15.40;99.90;;;;;;5054323;28;20200;-67
2022/07/11 05:20:36;;;;;;;0.60;0.60;;;15.50;99.90;;;;;;5055967;28;20217;-68
2022/07/11 05:23:02;;;;;;;0.30;0.30;;;15.60;99.90;;;;;;5054181;28;20213;-67
2022/07/11 05:25:28;;;;;;;0.43;0.43;;;15.70;99.90;;;;;;5054098;28;20201;-67
2022/07/11 05:27:54;;;;;;;0.40;0.40;;;15.70;99.90;;;;;;5036284;28;20208;-67
2022/07/11 05:30:20;;;;;;;0.43;0.43;;;15.70;99.90;;;;;;5041768;28;20281;-67
2022/07/11 05:32:45;;;;;;;0.50;0.50;;;15.70;99.90;;;;;;5034062;28;20201;-67
2022/07/11 05:35:11;;;;;;;0.32;0.32;;;15.60;99.90;;;;;;5034034;28;20194;-67
2022/07/11 05:37:37;;;;;;;1.33;0.70;;;15.50;99.90;;;;;;5031533;28;20649;-68
2022/07/11 05:40:03;;;;;;;0.40;0.40;;;15.30;99.90;;;;;;5053726;28;20193;-68
2022/07/11 05:42:30;;;;;;;0.40;0.40;;;15.30;99.90;;;;;;5053743;28;20229;-68
2022/07/11 05:44:56;;;;;;;0.43;0.43;;;15.30;99.90;;;;;;5054013;28;20194;-67
2022/07/11 05:47:21;;;;;;;0.40;0.40;;;15.40;99.90;;;;;;5053678;28;20208;-67
2022/07/11 05:49:47;;;;;;;0.38;0.38;;;15.50;99.90;;;;;;5053812;28;20220;-68
2022/07/11 05:52:13;;;;;;;0.50;0.50;;;15.40;99.90;;;;;;5053348;28;20206;-68
2022/07/11 05:54:38;;;;;;;0.40;0.40;;;15.40;99.90;;;;;;5053182;28;20292;-67
2022/07/11 05:57:04;;;;;;;0.40;0.40;;;15.40;99.90;;;;;;5054287;28;20273;-68
2022/07/11 05:59:30;;;;;;;0.40;0.40;;;15.60;99.90;;;;;;5039218;28;20203;-67
2022/07/11 06:01:56;;;;;;;0.40;0.40;;;15.80;99.90;;;;;;5033866;28;20190;-68
2022/07/11 06:04:22;;;;;;;0.30;0.30;;;16.00;99.90;;;;;;5033343;28;20677;-68
2022/07/11 06:06:48;;;;;;;0.40;0.40;;;16.20;99.90;;;;;;5025676;28;20202;-67
2022/07/11 06:09:14;;;;;;;0.30;0.30;;;16.40;99.90;;;;;;5035043;28;20194;-68
2022/07/11 06:11:40;;;;;;;0.40;0.40;;;16.60;99.90;;;;;;5053765;28;20197;-68
2022/07/11 06:14:06;;;;;;;0.38;0.38;;;16.80;99.90;;;;;;5053166;28;20232;-67
2022/07/11 06:16:32;;;;;;;0.32;0.32;;;16.80;99.90;;;;;;5053154;28;20193;-68
2022/07/11 06:18:58;;;;;;;0.30;0.30;;;16.90;99.90;;;;;;5053000;28;20193;-67
2022/07/11 06:21:27;;;;;;;0.40;0.40;;;17.00;99.90;;;;;;5050420;28;20261;-68
2022/07/11 06:23:54;;;;;;;0.30;0.30;;;17.10;99.90;;;;;;5072818;28;20213;-68
2022/07/11 06:26:20;;;;;;;0.30;0.30;;;17.30;99.90;;;;;;5072883;28;20218;-68
2022/07/11 06:28:46;;;;;;;0.30;0.30;;;17.40;99.90;;;;;;5072899;28;20213;-68
2022/07/11 06:31:12;;;;;;;0.45;0.45;;;17.60;99.90;;;;;;5073040;28;20462;-68
2022/07/11 06:33:39;;;;;;;0.45;0.45;;;17.60;99.90;;;;;;5072982;28;20205;-69
2022/07/11 06:36:05;;;;;;;0.30;0.30;;;17.60;99.90;;;;;;5072366;28;20275;-68
2022/07/11 06:38:32;;;;;;;0.38;0.38;;;17.70;99.90;;;;;;5072924;28;20192;-68
2022/07/11 06:40:58;;;;;;;0.30;0.30;;;17.80;99.90;;;;;;5072905;28;20264;-68
2022/07/11 06:43:24;;;;;;;0.30;0.30;;;17.90;99.90;;;;;;5072471;28;20205;-67
2022/07/11 06:45:51;;;;;;;0.35;0.35;;;17.80;99.90;;;;;;5071974;28;20204;-67
2022/07/11 06:48:17;;;;;;;0.28;0.28;;;17.90;99.90;;;;;;5072963;28;20250;-68
2022/07/11 06:50:43;;;;;;;0.30;0.30;;;18.00;99.90;;;;;;5072772;28;20197;-68
2022/07/11 06:53:09;;;;;;;0.43;0.43;;;18.10;99.90;;;;;;5072519;28;20715;-67
2022/07/11 06:55:35;;;;;;;0.38;0.38;;;18.30;99.90;;;;;;5059695;28;20231;-68
2022/07/11 06:58:01;;;;;;;0.55;0.40;;;18.50;99.90;;;;;;5052394;28;20197;-67
2022/07/11 07:00:29;;;;;;;0.30;0.30;;;18.70;99.90;;;;;;5052504;28;20193;-69
2022/07/11 07:03:00;;;;;;;0.20;0.20;;;18.90;99.90;;;;;;5052637;28;20245;-68
2022/07/11 07:05:26;;;;;;;0.20;0.20;;;19.20;99.90;;;;;;5054494;28;20202;-69
2022/07/11 07:07:52;;;;;;;0.20;0.20;;;19.20;99.90;;;;;;5092745;28;20184;-68
2022/07/11 07:10:18;;;;;;;0.50;0.50;;;19.30;99.90;;;;;;5092244;28;20189;-68
2022/07/11 07:12:44;;;;;;;0.40;0.40;;;19.30;99.90;;;;;;5092806;28;20196;-68
2022/07/11 07:15:11;;;;;;;0.30;0.30;;;19.40;99.90;;;;;;5090957;28;20721;-68
2022/07/11 07:17:37;;;;;;;0.32;0.32;;;19.40;99.90;;;;;;5091829;28;20202;-69
2022/07/11 07:20:04;;;;;;;0.20;0.20;;;19.50;99.90;;;;;;5092336;28;20288;-68
2022/07/11 07:22:30;;;;;;;0.38;0.38;;;19.70;99.90;;;;;;5082267;28;20232;-69
2022/07/11 07:24:57;;;;;;;0.20;0.20;;;19.80;99.90;;;;;;5072396;28;20189;-68
2022/07/11 07:27:22;;;;;;;0.20;0.20;;;19.90;99.90;;;;;;5072368;28;20219;-69
2022/07/11 07:29:48;;;;;;;0.22;0.22;;;20.10;99.90;;;;;;5072111;28;20197;-69
2022/07/11 07:32:14;;;;;;;0.20;0.20;;;20.00;99.90;;;;;;5070729;28;20192;-68
2022/07/11 07:34:40;;;;;;;0.20;0.20;;;19.60;99.90;;;;;;5071924;28;20199;-68
2022/07/11 07:37:05;;;;;;;0.30;0.30;;;19.50;99.90;;;;;;5072163;28;20197;-68
2022/07/11 07:39:31;;;;;;;0.25;0.25;;;19.50;99.90;;;;;;5075101;28;20192;-68
2022/07/11 07:41:57;;;;;;;0.30;0.30;;;19.30;99.90;;;;;;5077720;28;20228;-69
2022/07/11 07:44:23;;;;;;;0.25;0.25;;;19.30;99.90;;;;;;5078619;28;20569;-67
2022/07/11 07:46:48;;;;;;;0.30;0.30;;;19.50;99.90;;;;;;5078815;28;20196;-69
2022/07/11 07:49:14;;;;;;;0.20;0.20;;;19.80;99.90;;;;;;5078623;28;20212;-69
2022/07/11 07:51:40;;;;;;;0.32;0.32;;;19.90;99.90;;;;;;5065508;28;20246;-69
2022/07/11 07:54:06;;;;;;;0.30;0.30;;;20.20;99.90;;;;;;5058149;28;20197;-69
2022/07/11 07:56:32;;;;;;;0.30;0.30;;;20.30;99.90;;;;;;5058049;28;20247;-69
2022/07/11 07:58:57;;;;;;;0.30;0.30;;;20.20;99.90;;;;;;5074124;28;20209;-68
2022/07/11 08:01:35;;;;;;;0.20;0.20;;;20.40;99.90;;;;;;5058120;28;20212;-68
2022/07/11 08:04:10;;;;;;;0.25;0.25;;;20.70;99.90;;;;;;5058409;28;20207;-69
2022/07/11 08:06:37;;;;;;;0.30;0.30;;;20.70;99.90;;;;;;5070165;28;20246;-69
2022/07/11 08:09:04;;;;;;;0.20;0.20;;;21.00;99.90;;;;;;5078521;28;20655;-69
2022/07/11 08:11:30;;;;;;;0.38;0.38;;;21.20;99.90;;;;;;5076886;28;20193;-70
2022/07/11 08:13:56;;;;;;;0.20;0.20;;;21.60;99.90;;;;;;5077067;28;20246;-69
2022/07/11 08:16:22;;;;;;;0.20;0.20;;;22.00;99.90;;;;;;5078213;28;20200;-69
2022/07/11 08:18:48;;;;;;;0.22;0.22;;;22.40;99.90;;;;;;5068746;28;20693;-69
2022/07/11 08:21:13;;;;;;;0.13;0.13;;;22.20;99.90;;;;;;5050250;28;20218;-69
2022/07/11 08:23:39;;;;;;;0.30;0.30;;;22.20;99.90;;;;;;5038276;28;20548;-68
2022/07/11 08:26:05;;;;;;;0.95;0.40;;;22.20;99.90;;;;;;5033380;28;20209;-68
2022/07/11 08:28:32;;;;;;;0.20;0.20;;;22.20;99.90;;;;;;5057998;28;20224;-69
2022/07/11 08:30:58;;;;;;;0.20;0.20;;;22.10;99.90;;;;;;5040088;28;20197;-70
2022/07/11 08:33:24;;;;;;;0.25;0.25;;;22.00;99.90;;;;;;5057862;28;20595;-69
2022/07/11 08:35:49;;;;;;;0.20;0.20;;;22.20;99.90;;;;;;5058087;28;20625;-70
2022/07/11 08:38:15;;;;;;;0.30;0.30;;;22.60;99.90;;;;;;5058219;28;20201;-70
2022/07/11 08:40:41;;;;;;;0.25;0.22;;;22.80;99.90;;;;;;5057518;28;20228;-68
2022/07/11 08:43:15;;;;;;;0.20;0.20;;;22.80;99.90;;;;;;5058004;28;20201;-69
2022/07/11 08:45:41;;;;;;;0.20;0.20;;;22.50;99.90;;;;;;5057893;28;20204;-68
2022/07/11 08:48:11;;;;;;;0.25;0.25;;;22.30;99.90;;;;;;5044737;28;20198;-69
2022/07/11 08:50:37;;;;;;;4.18;0.30;;;22.30;99.90;;;;;;5036188;28;20190;-68
2022/07/11 08:53:04;;;;;;;0.10;0.10;;;22.50;99.90;;;;;;5016923;28;20198;-69
2022/07/11 08:55:31;;;;;;;0.20;0.20;;;22.40;99.90;;;;;;5034929;28;20202;-69
2022/07/11 08:57:56;;;;;;;0.20;0.20;;;22.60;99.90;;;;;;5016861;28;20186;-69
2022/07/11 09:00:23;;;;;;;0.20;0.20;;;22.70;99.90;;;;;;5016738;28;20191;-69
2022/07/11 09:02:49;;;;;;;0.20;0.20;;;22.90;99.90;;;;;;5034490;28;20206;-69
2022/07/11 09:05:15;;;;;;;0.30;0.30;;;23.30;99.90;;;;;;5035759;28;20261;-70
2022/07/11 09:07:46;;;;;;;0.22;0.22;;;23.60;99.90;;;;;;5054497;28;20272;-70
2022/07/11 09:10:12;;;;;;;0.20;0.20;;;23.40;99.90;;;;;;5054489;28;20196;-69
2022/07/11 09:12:57;;;;;;;0.65;0.50;;;23.10;99.90;;;;;;5054402;28;20269;-69
2022/07/11 09:15:40;;;;;;;0.65;0.30;;;23.10;99.90;;;;;;5042012;28;20190;-69
2022/07/11 09:18:35;;;;;;;0.20;0.20;;;23.40;99.90;;;;;;5016754;28;20198;-69
2022/07/11 09:26:42;;;;;;;0.38;0.38;;;24.10;99.90;;;;;;5054099;28;20204;-69
2022/07/11 09:29:09;;;;;;;0.10;0.10;;;24.30;99.90;;;;;;5053934;28;20776;-69
2022/07/11 09:31:37;;;;;;;1.02;0.52;;;24.10;99.90;;;;;;5053935;28;20648;-69
2022/07/11 09:34:05;;;;;;;0.20;0.20;;;24.00;99.90;;;;;;5054123;28;20707;-69
2022/07/11 09:36:52;;;;;;;0.15;0.15;;;23.90;99.90;;;;;;5053328;28;20204;-68
2022/07/11 09:39:19;;;;;;;0.20;0.20;;;23.90;99.90;;;;;;5053299;28;20193;-69
2022/07/11 09:41:49;;;;;;;2.33;0.45;;;24.00;99.90;;;;;;5035315;28;20233;-69
2022/07/11 09:44:20;;;;;;;0.10;0.10;;;24.70;99.90;;;;;;5041331;28;20209;-70
2022/07/11 09:46:52;;;;;;;0.52;0.30;;;25.30;99.90;;;;;;5033788;28;20540;-69
2022/07/11 09:49:29;;;;;;;0.10;0.10;;;25.60;99.30;;;;;;5033646;28;20190;-70
2022/07/11 09:51:56;;;;;;;0.20;0.20;;;25.10;98.90;;;;;;5033693;28;20657;-68
2022/07/11 09:54:22;;;;;;;0.17;0.17;;;24.90;99.30;;;;;;5032672;28;20202;-68
2022/07/11 09:56:51;;;;;;;0.20;0.20;;;25.40;98.30;;;;;;5033023;28;20194;-68
2022/07/11 09:59:18;;;;;;;0.22;0.22;;;25.00;97.60;;;;;;5032664;28;20685;-68
2022/07/11 10:01:45;;;;;;;0.20;0.20;;;24.40;97.00;;;;;;5032421;28;20190;-69
2022/07/11 10:04:11;;;;;;;0.20;0.20;;;24.90;98.70;;;;;;5015262;28;20728;-67
2022/07/11 10:06:38;;;;;;;0.20;0.20;;;25.10;95.90;;;;;;5023866;28;20198;-68
2022/07/11 10:09:05;;;;;;;0.20;0.20;;;24.80;95.50;;;;;;5033181;28;20197;-68
2022/07/11 10:11:32;;;;;;;1.17;0.52;;;24.90;97.40;;;;;;5032534;28;20194;-68
2022/07/11 10:14:03;;;;;;;0.22;0.22;;;24.80;96.90;;;;;;5033155;28;20269;-69
2022/07/11 10:16:48;;;;;;;0.25;0.22;;;25.10;97.70;;;;;;5032674;28;20277;-69
2022/07/11 10:19:22;;;;;;;0.35;0.20;;;25.80;98.00;;;;;;5051068;28;20208;-68
2022/07/11 10:22:14;;;;;;;0.20;0.20;;;26.00;93.80;;;;;;5052275;28;20220;-69
2022/07/11 10:25:01;;;;;;;0.30;0.30;;;25.90;93.60;;;;;;5052078;28;20661;-68
2022/07/11 10:27:48;;;;;;;0.17;0.17;;;25.50;93.00;;;;;;5034388;28;20201;-68
2022/07/11 10:30:45;;;;;;;0.10;0.10;;;25.60;94.50;;;;;;5052383;28;20778;-68
2022/07/11 10:33:11;;;;;;;1.90;0.30;;;25.60;93.40;;;;;;5052164;28;20193;-69
2022/07/11 10:35:44;;;;;;;0.10;0.10;;;25.10;93.20;;;;;;5034325;28;20521;-69
2022/07/11 10:38:10;;;;;;;0.20;0.20;;;25.10;94.00;;;;;;5052375;28;20224;-69
2022/07/11 10:40:50;;;;;;;0.10;0.10;;;25.40;94.00;;;;;;5051941;28;20189;-69
2022/07/11 10:43:22;;;;;;;0.40;0.40;;;25.80;93.80;;;;;;5051902;28;20201;-69
2022/07/11 10:45:58;;;;;;;0.70;0.35;;;25.90;92.50;;;;;;5034311;28;20300;-68
2022/07/11 10:48:26;;;;;;;0.20;0.20;;;25.60;92.00;;;;;;5051982;28;20291;-70
2022/07/11 10:51:25;;;;;;;0.10;0.10;;;25.10;91.90;;;;;;5029286;28;20624;-69
2022/07/11 10:53:53;;;;;;;0.20;0.20;;;25.10;93.00;;;;;;5011744;28;20259;-70
2022/07/11 10:56:51;;;;;;;0.20;0.20;;;25.40;90.70;;;;;;5014149;28;20237;-68
2022/07/11 10:59:19;;;;;;;0.20;0.20;;;24.90;93.00;;;;;;5032197;28;20201;-70
2022/07/11 11:02:11;;;;;;;0.20;0.20;;;24.80;91.30;;;;;;5032086;28;20657;-71
2022/07/11 11:04:57;;;;;;;0.30;0.30;;;24.50;93.00;;;;;;5031621;28;20304;-68
2022/07/11 11:07:41;;;;;;;0.10;0.10;;;24.70;92.70;;;;;;5041751;28;20313;-68
2022/07/11 11:10:18;;;;;;;1.77;0.32;;;24.80;92.20;;;;;;5031473;28;20660;-68
2022/07/11 11:13:14;;;;;;;0.20;0.20;;;24.80;91.70;;;;;;5032158;28;20675;-68
2022/07/11 11:15:54;;;;;;;0.20;0.20;;;24.70;91.90;;;;;;5031392;28;20198;-69
2022/07/11 11:18:23;;;;;;;0.30;0.30;;;24.60;92.30;;;;;;5031264;28;20186;-68
2022/07/11 11:20:57;;;;;;;0.10;0.10;;;25.20;92.60;;;;;;5031456;28;20228;-70
2022/07/11 11:23:24;;;;;;;0.20;0.20;;;25.60;91.00;;;;;;5031359;28;20197;-68
2022/07/11 11:25:50;;;;;;;0.10;0.10;;;25.40;91.10;;;;;;5013701;28;20205;-68
2022/07/11 11:28:20;;;;;;;0.10;0.10;;;25.30;91.80;;;;;;5031609;28;20556;-69
2022/07/11 11:31:12;;;;;;;0.30;0.30;;;25.50;90.00;;;;;;5031841;28;20190;-67
2022/07/11 11:33:38;;;;;;;0.20;0.20;;;25.90;90.70;;;;;;5028356;28;20214;-69
2022/07/11 11:36:09;;;;;;;0.10;0.10;;;26.40;90.50;;;;;;5036470;28;20213;-69
2022/07/11 11:38:46;;;;;;;0.20;0.20;;;27.10;90.70;;;;;;5051440;28;20442;-68
2022/07/11 11:41:20;;;;;;;0.20;0.20;;;27.50;88.00;;;;;;5051234;28;20222;-68
2022/07/11 11:43:46;;;;;;;0.20;0.20;;;27.40;87.30;;;;;;5051376;28;20300;-67
2022/07/11 11:46:13;;;;;;;0.10;0.10;;;27.50;85.20;;;;;;5051717;28;20280;-67
2022/07/11 11:48:44;;;;;;;0.15;0.15;;;27.60;83.60;;;;;;5033773;28;20201;-68
2022/07/11 11:51:15;;;;;;;0.55;0.22;;;27.60;85.50;;;;;;5031567;28;20205;-69
2022/07/11 11:53:44;;;;;;;0.30;0.30;;;27.60;88.10;;;;;;5031207;28;20204;-67
2022/07/11 11:56:15;;;;;;;0.17;0.17;;;27.80;83.60;;;;;;5031019;28;20202;-68
2022/07/11 11:58:44;;;;;;;0.20;0.20;;;27.90;84.00;;;;;;5013923;28;20584;-68
2022/07/11 12:01:19;;;;;;;0.22;0.22;;;28.30;84.30;;;;;;5030953;28;20204;-68
2022/07/11 12:03:52;;;;;;;0.10;0.10;;;27.70;82.40;;;;;;5013686;28;20223;-68
2022/07/11 12:06:22;;;;;;;0.13;0.13;;;27.70;82.10;;;;;;5040667;28;20197;-69
2022/07/11 12:08:48;;;;;;;0.13;0.13;;;27.80;85.40;;;;;;5051324;28;20197;-68
2022/07/11 12:11:14;;;;;;;0.10;0.10;;;28.00;80.90;;;;;;5036536;28;20204;-68
2022/07/11 12:13:41;;;;;;;0.10;0.10;;;27.70;79.80;;;;;;5031439;28;20281;-69
2022/07/11 12:19:02;;;;;;;0.10;0.10;;;27.40;77.00;;;;;;5031336;28;20285;-68
2022/07/11 12:21:29;;;;;;;0.20;0.20;;;26.80;77.60;;;;;;5030584;28;20324;-68
2022/07/11 12:24:00;;;;;;;0.10;0.10;;;26.90;79.80;;;;;;5030897;28;20336;-67
2022/07/11 12:26:31;;;;;;;0.10;0.10;;;26.90;79.00;;;;;;5015495;28;20222;-70
2022/07/11 12:29:07;;;;;;;0.20;0.20;;;27.20;81.10;;;;;;5034827;28;20186;-68
2022/07/11 12:31:46;;;;;;;0.22;0.22;;;27.10;78.10;;;;;;5016597;28;20305;-70
2022/07/11 12:34:13;;;;;;;0.20;0.20;;;27.60;77.60;;;;;;5034595;28;20284;-70
2022/07/11 12:36:39;;;;;;;0.13;0.13;;;27.60;79.30;;;;;;5034334;28;20194;-69
2022/07/11 12:39:05;;;;;;;0.20;0.20;;;27.70;77.60;;;;;;5016805;28;20699;-68
2022/07/11 12:41:31;;;;;;;0.10;0.10;;;28.10;77.10;;;;;;5034426;28;20194;-69
2022/07/11 12:46:42;;;;;;;0.13;0.10;;;28.50;73.10;;;;;;5034965;28;20197;-69
2022/07/11 12:49:11;;;;;;;0.10;0.10;;;28.40;70.50;;;;;;5034661;28;20203;-69
2022/07/11 12:51:43;;;;;;;0.20;0.20;;;28.40;73.00;;;;;;5015998;28;20220;-68
2022/07/11 12:54:14;;;;;;;2.17;0.38;;;28.70;76.80;;;;;;5016950;28;20551;-68
2022/07/11 12:56:50;;;;;;;0.15;0.15;;;28.20;72.40;;;;;;5034364;28;20194;-68
2022/07/11 12:59:21;;;;;;;0.10;0.10;;;28.10;73.40;;;;;;5037278;28;20206;-68
2022/07/11 13:02:05;;;;;;;0.10;0.10;;;27.70;75.50;;;;;;5054360;28;20542;-69
2022/07/11 13:04:50;;;;;;;0.13;0.10;;;26.90;75.60;;;;;;5054148;28;20220;-69